sensor_id;sensor_type;location;lat;lon;timestamp;temperature;humidity
74511;DHT22;62991;50.040;18.400;2022-11-23T00:01:42;7.70;59.00
74511;DHT22;62991;50.040;18.400;2022-11-23T00:04:44;7.70;59.10
74511;DHT22;62991;50.040;18.400;2022-11-23T00:07:45;7.60;59.10
74511;DHT22;62991;50.040;18.400;2022-11-23T00:10:46;7.70;59.00
74511;DHT22;62991;50.040;18.400;2022-11-23T00:13:47;7.60;59.00
74511;DHT22;62991;50.040;18.400;2022-11-23T00:16:48;7.60;59.00
74511;DHT22;62991;50.040;18.400;2022-11-23T00:19:49;7.60;59.10
74511;DHT22;62991;50.040;18.400;2022-11-23T00:22:50;7.60;59.10
74511;DHT22;62991;50.040;18.400;2022-11-23T00:25:52;7.50;59.10
74511;DHT22;62991;50.040;18.400;2022-11-23T00:28:53;7.50;59.10
74511;DHT22;62991;50.040;18.400;2022-11-23T00:31:54;7.50;59.20
74511;DHT22;62991;50.040;18.400;2022-11-23T00:34:55;7.50;59.20
74511;DHT22;62991;50.040;18.400;2022-11-23T00:37:56;7.50;59.20
74511;DHT22;62991;50.040;18.400;2022-11-23T00:41:06;7.50;59.20
74511;DHT22;62991;50.040;18.400;2022-11-23T00:44:08;7.50;59.20
74511;DHT22;62991;50.040;18.400;2022-11-23T00:47:09;7.50;59.20
74511;DHT22;62991;50.040;18.400;2022-11-23T00:50:10;7.50;59.10
74511;DHT22;62991;50.040;18.400;2022-11-23T00:53:11;7.50;59.10
74511;DHT22;62991;50.040;18.400;2022-11-23T00:56:12;7.40;59.20
74511;DHT22;62991;50.040;18.400;2022-11-23T00:59:14;7.40;59.10
74511;DHT22;62991;50.040;18.400;2022-11-23T01:02:15;7.40;59.10
74511;DHT22;62991;50.040;18.400;2022-11-23T01:05:16;7.40;59.10
74511;DHT22;62991;50.040;18.400;2022-11-23T01:08:17;7.40;59.10
74511;DHT22;62991;50.040;18.400;2022-11-23T01:11:19;7.40;59.10
74511;DHT22;62991;50.040;18.400;2022-11-23T01:14:21;7.30;59.10
74511;DHT22;62991;50.040;18.400;2022-11-23T01:17:22;7.30;59.10
74511;DHT22;62991;50.040;18.400;2022-11-23T01:20:23;7.30;59.10
74511;DHT22;62991;50.040;18.400;2022-11-23T01:23:27;7.30;59.10
74511;DHT22;62991;50.040;18.400;2022-11-23T01:26:29;7.30;59.10
74511;DHT22;62991;50.040;18.400;2022-11-23T01:29:30;7.30;59.10
74511;DHT22;62991;50.040;18.400;2022-11-23T01:32:31;7.30;59.10
74511;DHT22;62991;50.040;18.400;2022-11-23T01:35:32;7.20;59.10
74511;DHT22;62991;50.040;18.400;2022-11-23T01:38:33;7.20;59.10
74511;DHT22;62991;50.040;18.400;2022-11-23T01:41:36;7.20;59.10
74511;DHT22;62991;50.040;18.400;2022-11-23T01:44:40;7.20;59.10
74511;DHT22;62991;50.040;18.400;2022-11-23T01:47:41;7.10;59.10
74511;DHT22;62991;50.040;18.400;2022-11-23T01:50:44;7.10;59.10
74511;DHT22;62991;50.040;18.400;2022-11-23T01:53:48;7.10;59.10
74511;DHT22;62991;50.040;18.400;2022-11-23T01:56:57;7.10;59.10
74511;DHT22;62991;50.040;18.400;2022-11-23T02:00:00;7.00;59.20
74511;DHT22;62991;50.040;18.400;2022-11-23T02:03:04;7.00;59.20
74511;DHT22;62991;50.040;18.400;2022-11-23T02:06:10;7.00;59.20
74511;DHT22;62991;50.040;18.400;2022-11-23T02:09:15;7.00;59.20
74511;DHT22;62991;50.040;18.400;2022-11-23T02:12:16;7.00;59.20
74511;DHT22;62991;50.040;18.400;2022-11-23T02:15:17;6.90;59.30
74511;DHT22;62991;50.040;18.400;2022-11-23T02:18:22;6.90;59.30
74511;DHT22;62991;50.040;18.400;2022-11-23T02:21:23;6.90;59.30
74511;DHT22;62991;50.040;18.400;2022-11-23T02:24:29;6.90;59.30
74511;DHT22;62991;50.040;18.400;2022-11-23T02:27:31;6.80;59.30
74511;DHT22;62991;50.040;18.400;2022-11-23T02:30:34;6.80;59.30
74511;DHT22;62991;50.040;18.400;2022-11-23T02:33:38;6.80;59.30
74511;DHT22;62991;50.040;18.400;2022-11-23T02:39:48;6.70;59.40
74511;DHT22;62991;50.040;18.400;2022-11-23T02:42:51;6.70;59.40
74511;DHT22;62991;50.040;18.400;2022-11-23T02:46:00;6.60;59.40
74511;DHT22;62991;50.040;18.400;2022-11-23T02:49:03;6.60;59.40
74511;DHT22;62991;50.040;18.400;2022-11-23T02:52:04;6.60;59.50
74511;DHT22;62991;50.040;18.400;2022-11-23T02:55:05;6.60;59.50
74511;DHT22;62991;50.040;18.400;2022-11-23T02:58:06;6.50;59.50
74511;DHT22;62991;50.040;18.400;2022-11-23T03:01:08;6.50;59.50
74511;DHT22;62991;50.040;18.400;2022-11-23T03:04:09;6.50;59.40
74511;DHT22;62991;50.040;18.400;2022-11-23T03:07:10;6.50;59.50
74511;DHT22;62991;50.040;18.400;2022-11-23T03:10:11;6.50;59.40
74511;DHT22;62991;50.040;18.400;2022-11-23T03:13:12;6.50;59.40
74511;DHT22;62991;50.040;18.400;2022-11-23T03:16:13;6.40;59.40
74511;DHT22;62991;50.040;18.400;2022-11-23T03:19:16;6.40;59.50
74511;DHT22;62991;50.040;18.400;2022-11-23T03:22:17;6.40;59.50
74511;DHT22;62991;50.040;18.400;2022-11-23T03:25:18;6.40;59.50
74511;DHT22;62991;50.040;18.400;2022-11-23T03:28:19;6.30;59.50
74511;DHT22;62991;50.040;18.400;2022-11-23T03:31:20;6.30;59.50
74511;DHT22;62991;50.040;18.400;2022-11-23T03:34:22;6.20;59.50
74511;DHT22;62991;50.040;18.400;2022-11-23T03:37:23;6.10;59.60
74511;DHT22;62991;50.040;18.400;2022-11-23T03:40:25;6.00;59.70
74511;DHT22;62991;50.040;18.400;2022-11-23T03:43:26;5.90;59.80
74511;DHT22;62991;50.040;18.400;2022-11-23T03:46:27;5.90;59.80
74511;DHT22;62991;50.040;18.400;2022-11-23T03:49:28;5.80;59.90
74511;DHT22;62991;50.040;18.400;2022-11-23T03:52:29;5.70;60.00
74511;DHT22;62991;50.040;18.400;2022-11-23T03:55:31;5.60;60.10
74511;DHT22;62991;50.040;18.400;2022-11-23T03:58:32;5.60;60.20
74511;DHT22;62991;50.040;18.400;2022-11-23T04:01:34;5.60;60.20
74511;DHT22;62991;50.040;18.400;2022-11-23T04:04:35;5.60;60.30
74511;DHT22;62991;50.040;18.400;2022-11-23T04:07:36;5.70;60.20
74511;DHT22;62991;50.040;18.400;2022-11-23T04:10:37;5.70;60.10
74511;DHT22;62991;50.040;18.400;2022-11-23T04:13:38;5.70;60.10
74511;DHT22;62991;50.040;18.400;2022-11-23T04:16:39;5.60;60.10
74511;DHT22;62991;50.040;18.400;2022-11-23T04:19:40;5.60;60.20
74511;DHT22;62991;50.040;18.400;2022-11-23T04:22:41;5.60;60.40
74511;DHT22;62991;50.040;18.400;2022-11-23T04:25:42;5.70;60.40
74511;DHT22;62991;50.040;18.400;2022-11-23T04:28:44;5.70;60.30
74511;DHT22;62991;50.040;18.400;2022-11-23T04:31:46;5.70;60.30
74511;DHT22;62991;50.040;18.400;2022-11-23T04:34:47;5.80;60.20
74511;DHT22;62991;50.040;18.400;2022-11-23T04:37:48;5.80;60.10
74511;DHT22;62991;50.040;18.400;2022-11-23T04:40:49;5.80;60.10
74511;DHT22;62991;50.040;18.400;2022-11-23T04:43:50;5.90;60.10
74511;DHT22;62991;50.040;18.400;2022-11-23T04:46:52;5.90;60.10
74511;DHT22;62991;50.040;18.400;2022-11-23T04:49:53;5.80;60.10
74511;DHT22;62991;50.040;18.400;2022-11-23T04:52:54;5.80;60.20
74511;DHT22;62991;50.040;18.400;2022-11-23T04:55:55;5.80;60.20
74511;DHT22;62991;50.040;18.400;2022-11-23T04:58:56;5.80;60.20
74511;DHT22;62991;50.040;18.400;2022-11-23T05:01:57;5.80;60.20
74511;DHT22;62991;50.040;18.400;2022-11-23T05:04:58;5.80;60.20
74511;DHT22;62991;50.040;18.400;2022-11-23T05:07:59;5.90;60.20
74511;DHT22;62991;50.040;18.400;2022-11-23T05:11:00;5.90;60.10
74511;DHT22;62991;50.040;18.400;2022-11-23T05:14:02;6.00;60.00
74511;DHT22;62991;50.040;18.400;2022-11-23T05:17:03;6.00;60.00
74511;DHT22;62991;50.040;18.400;2022-11-23T05:20:04;6.00;59.90
74511;DHT22;62991;50.040;18.400;2022-11-23T05:23:06;6.00;59.90
74511;DHT22;62991;50.040;18.400;2022-11-23T05:26:07;6.00;59.90
74511;DHT22;62991;50.040;18.400;2022-11-23T05:29:09;6.00;59.90
74511;DHT22;62991;50.040;18.400;2022-11-23T05:32:10;6.00;59.80
74511;DHT22;62991;50.040;18.400;2022-11-23T05:35:11;5.90;59.90
74511;DHT22;62991;50.040;18.400;2022-11-23T05:38:12;5.90;60.00
74511;DHT22;62991;50.040;18.400;2022-11-23T05:41:13;5.80;60.00
74511;DHT22;62991;50.040;18.400;2022-11-23T05:44:15;5.80;60.00
74511;DHT22;62991;50.040;18.400;2022-11-23T05:47:16;5.70;60.10
74511;DHT22;62991;50.040;18.400;2022-11-23T05:50:18;5.70;60.20
74511;DHT22;62991;50.040;18.400;2022-11-23T05:53:19;5.70;60.20
74511;DHT22;62991;50.040;18.400;2022-11-23T05:56:20;5.70;60.10
74511;DHT22;62991;50.040;18.400;2022-11-23T05:59:21;5.80;60.10
74511;DHT22;62991;50.040;18.400;2022-11-23T06:02:22;5.80;60.10
74511;DHT22;62991;50.040;18.400;2022-11-23T06:05:24;5.80;60.00
74511;DHT22;62991;50.040;18.400;2022-11-23T06:08:25;5.80;60.00
74511;DHT22;62991;50.040;18.400;2022-11-23T06:11:26;5.80;60.00
74511;DHT22;62991;50.040;18.400;2022-11-23T06:14:27;5.80;60.00
74511;DHT22;62991;50.040;18.400;2022-11-23T06:17:28;5.80;59.90
74511;DHT22;62991;50.040;18.400;2022-11-23T06:20:29;5.80;59.90
74511;DHT22;62991;50.040;18.400;2022-11-23T06:23:30;5.80;60.00
74511;DHT22;62991;50.040;18.400;2022-11-23T06:26:31;5.70;60.00
74511;DHT22;62991;50.040;18.400;2022-11-23T06:29:32;5.70;60.10
74511;DHT22;62991;50.040;18.400;2022-11-23T06:32:34;5.70;60.10
74511;DHT22;62991;50.040;18.400;2022-11-23T06:35:35;5.70;60.10
74511;DHT22;62991;50.040;18.400;2022-11-23T06:38:36;5.70;60.10
74511;DHT22;62991;50.040;18.400;2022-11-23T06:41:38;5.80;60.10
74511;DHT22;62991;50.040;18.400;2022-11-23T06:44:39;5.80;60.10
74511;DHT22;62991;50.040;18.400;2022-11-23T06:47:40;5.80;60.00
74511;DHT22;62991;50.040;18.400;2022-11-23T06:50:41;5.80;60.00
74511;DHT22;62991;50.040;18.400;2022-11-23T06:53:42;5.80;59.90
74511;DHT22;62991;50.040;18.400;2022-11-23T06:56:43;5.80;60.00
74511;DHT22;62991;50.040;18.400;2022-11-23T06:59:44;5.90;60.00
74511;DHT22;62991;50.040;18.400;2022-11-23T07:02:53;5.90;59.90
74511;DHT22;62991;50.040;18.400;2022-11-23T07:05:55;5.90;59.90
74511;DHT22;62991;50.040;18.400;2022-11-23T07:08:56;5.90;59.90
74511;DHT22;62991;50.040;18.400;2022-11-23T07:11:57;5.90;59.90
74511;DHT22;62991;50.040;18.400;2022-11-23T07:14:58;5.90;59.90
74511;DHT22;62991;50.040;18.400;2022-11-23T07:17:59;6.00;59.90
74511;DHT22;62991;50.040;18.400;2022-11-23T07:21:00;6.00;59.80
74511;DHT22;62991;50.040;18.400;2022-11-23T07:24:02;6.00;59.90
74511;DHT22;62991;50.040;18.400;2022-11-23T07:27:03;6.00;59.80
74511;DHT22;62991;50.040;18.400;2022-11-23T07:30:04;6.00;59.90
74511;DHT22;62991;50.040;18.400;2022-11-23T07:33:07;5.90;59.90
74511;DHT22;62991;50.040;18.400;2022-11-23T07:36:09;5.90;59.90
74511;DHT22;62991;50.040;18.400;2022-11-23T07:39:10;5.90;60.00
74511;DHT22;62991;50.040;18.400;2022-11-23T07:42:11;5.90;60.00
74511;DHT22;62991;50.040;18.400;2022-11-23T07:45:12;5.90;60.00
74511;DHT22;62991;50.040;18.400;2022-11-23T07:48:14;5.90;60.00
74511;DHT22;62991;50.040;18.400;2022-11-23T07:51:16;5.90;60.00
74511;DHT22;62991;50.040;18.400;2022-11-23T07:54:19;5.90;60.00
74511;DHT22;62991;50.040;18.400;2022-11-23T07:57:20;5.90;60.00
74511;DHT22;62991;50.040;18.400;2022-11-23T08:00:22;5.90;60.00
74511;DHT22;62991;50.040;18.400;2022-11-23T08:03:23;5.90;60.00
74511;DHT22;62991;50.040;18.400;2022-11-23T08:06:25;5.90;60.00
74511;DHT22;62991;50.040;18.400;2022-11-23T08:09:26;6.00;60.00
74511;DHT22;62991;50.040;18.400;2022-11-23T08:12:27;6.00;60.00
74511;DHT22;62991;50.040;18.400;2022-11-23T08:15:29;6.00;60.00
74511;DHT22;62991;50.040;18.400;2022-11-23T08:18:30;6.00;60.00
74511;DHT22;62991;50.040;18.400;2022-11-23T08:21:31;6.10;60.00
74511;DHT22;62991;50.040;18.400;2022-11-23T08:24:32;6.10;60.00
74511;DHT22;62991;50.040;18.400;2022-11-23T08:27:33;6.10;60.00
74511;DHT22;62991;50.040;18.400;2022-11-23T08:30:35;6.10;60.00
74511;DHT22;62991;50.040;18.400;2022-11-23T08:33:38;6.10;60.00
74511;DHT22;62991;50.040;18.400;2022-11-23T08:36:40;6.20;60.10
74511;DHT22;62991;50.040;18.400;2022-11-23T08:39:41;6.20;60.00
74511;DHT22;62991;50.040;18.400;2022-11-23T08:42:42;6.20;60.00
74511;DHT22;62991;50.040;18.400;2022-11-23T08:45:43;6.30;60.00
74511;DHT22;62991;50.040;18.400;2022-11-23T08:48:44;6.30;60.00
74511;DHT22;62991;50.040;18.400;2022-11-23T08:51:45;6.40;59.90
74511;DHT22;62991;50.040;18.400;2022-11-23T08:54:47;6.40;59.90
74511;DHT22;62991;50.040;18.400;2022-11-23T08:57:48;6.40;59.80
74511;DHT22;62991;50.040;18.400;2022-11-23T09:00:49;6.50;59.80
74511;DHT22;62991;50.040;18.400;2022-11-23T09:03:50;6.50;59.70
74511;DHT22;62991;50.040;18.400;2022-11-23T09:06:51;6.50;59.70
74511;DHT22;62991;50.040;18.400;2022-11-23T09:09:52;6.50;59.70
74511;DHT22;62991;50.040;18.400;2022-11-23T09:12:53;6.50;59.70
74511;DHT22;62991;50.040;18.400;2022-11-23T09:15:58;6.40;59.70
74511;DHT22;62991;50.040;18.400;2022-11-23T09:18:59;6.40;59.80
74511;DHT22;62991;50.040;18.400;2022-11-23T09:22:00;6.40;59.80
74511;DHT22;62991;50.040;18.400;2022-11-23T09:25:02;6.40;59.80
74511;DHT22;62991;50.040;18.400;2022-11-23T09:28:03;6.40;59.80
74511;DHT22;62991;50.040;18.400;2022-11-23T09:31:04;6.40;59.80
74511;DHT22;62991;50.040;18.400;2022-11-23T09:34:06;6.50;59.80
74511;DHT22;62991;50.040;18.400;2022-11-23T09:37:07;6.50;59.70
74511;DHT22;62991;50.040;18.400;2022-11-23T09:40:13;6.50;59.80
74511;DHT22;62991;50.040;18.400;2022-11-23T09:49:38;6.60;59.70
74511;DHT22;62991;50.040;18.400;2022-11-23T09:52:45;6.70;59.70
74511;DHT22;62991;50.040;18.400;2022-11-23T09:55:50;6.70;59.70
74511;DHT22;62991;50.040;18.400;2022-11-23T09:58:54;6.80;59.60
74511;DHT22;62991;50.040;18.400;2022-11-23T10:01:57;6.80;59.50
74511;DHT22;62991;50.040;18.400;2022-11-23T10:04:59;6.80;59.50
74511;DHT22;62991;50.040;18.400;2022-11-23T10:08:30;6.90;59.50
74511;DHT22;62991;50.040;18.400;2022-11-23T10:18:25;7.00;59.30
74511;DHT22;62991;50.040;18.400;2022-11-23T10:24:41;7.00;59.30
74511;DHT22;62991;50.040;18.400;2022-11-23T10:27:46;7.10;59.20
74511;DHT22;62991;50.040;18.400;2022-11-23T10:30:54;7.10;59.20
74511;DHT22;62991;50.040;18.400;2022-11-23T10:34:10;7.10;59.20
74511;DHT22;62991;50.040;18.400;2022-11-23T10:37:13;7.10;59.20
74511;DHT22;62991;50.040;18.400;2022-11-23T10:40:25;7.10;59.20
74511;DHT22;62991;50.040;18.400;2022-11-23T10:43:51;7.20;59.20
74511;DHT22;62991;50.040;18.400;2022-11-23T10:46:54;7.20;59.10
74511;DHT22;62991;50.040;18.400;2022-11-23T10:49:57;7.20;59.10
74511;DHT22;62991;50.040;18.400;2022-11-23T10:53:21;7.20;59.10
74511;DHT22;62991;50.040;18.400;2022-11-23T10:56:22;7.30;59.10
74511;DHT22;62991;50.040;18.400;2022-11-23T10:59:35;7.30;59.10
74511;DHT22;62991;50.040;18.400;2022-11-23T11:02:39;7.30;59.00
74511;DHT22;62991;50.040;18.400;2022-11-23T11:05:48;7.30;59.00
74511;DHT22;62991;50.040;18.400;2022-11-23T11:08:55;7.40;59.00
74511;DHT22;62991;50.040;18.400;2022-11-23T11:11:57;7.40;58.90
74511;DHT22;62991;50.040;18.400;2022-11-23T11:18:17;7.40;59.00
74511;DHT22;62991;50.040;18.400;2022-11-23T11:21:31;7.50;58.90
74511;DHT22;62991;50.040;18.400;2022-11-23T11:24:42;7.60;58.80
74511;DHT22;62991;50.040;18.400;2022-11-23T11:27:50;7.80;58.70
74511;DHT22;62991;50.040;18.400;2022-11-23T11:37:59;8.00;58.40
74511;DHT22;62991;50.040;18.400;2022-11-23T11:41:07;8.10;58.30
74511;DHT22;62991;50.040;18.400;2022-11-23T11:44:17;8.20;58.20
74511;DHT22;62991;50.040;18.400;2022-11-23T11:51:07;8.20;58.00
74511;DHT22;62991;50.040;18.400;2022-11-23T11:54:24;8.30;57.90
74511;DHT22;62991;50.040;18.400;2022-11-23T11:57:36;8.30;57.90
74511;DHT22;62991;50.040;18.400;2022-11-23T12:00:40;8.20;57.90
74511;DHT22;62991;50.040;18.400;2022-11-23T12:03:49;8.20;57.90
74511;DHT22;62991;50.040;18.400;2022-11-23T12:07:06;8.20;57.90
74511;DHT22;62991;50.040;18.400;2022-11-23T12:10:16;8.20;57.80
74511;DHT22;62991;50.040;18.400;2022-11-23T12:13:23;8.20;57.80
74511;DHT22;62991;50.040;18.400;2022-11-23T12:16:37;8.20;57.90
74511;DHT22;62991;50.040;18.400;2022-11-23T12:19:55;8.20;57.80
74511;DHT22;62991;50.040;18.400;2022-11-23T12:26:18;8.20;57.80
74511;DHT22;62991;50.040;18.400;2022-11-23T12:42:57;8.10;57.80
74511;DHT22;62991;50.040;18.400;2022-11-23T12:46:06;8.10;57.70
74511;DHT22;62991;50.040;18.400;2022-11-23T12:55:54;8.10;57.60
74511;DHT22;62991;50.040;18.400;2022-11-23T12:58:57;8.10;57.60
74511;DHT22;62991;50.040;18.400;2022-11-23T13:02:02;8.10;57.60
74511;DHT22;62991;50.040;18.400;2022-11-23T13:05:54;8.10;57.50
74511;DHT22;62991;50.040;18.400;2022-11-23T13:12:25;8.10;57.50
74511;DHT22;62991;50.040;18.400;2022-11-23T13:15:41;8.10;57.40
74511;DHT22;62991;50.040;18.400;2022-11-23T13:21:59;8.10;57.30
74511;DHT22;62991;50.040;18.400;2022-11-23T13:25:14;8.10;57.30
74511;DHT22;62991;50.040;18.400;2022-11-23T13:28:29;8.00;57.30
74511;DHT22;62991;50.040;18.400;2022-11-23T13:31:32;8.00;57.30
74511;DHT22;62991;50.040;18.400;2022-11-23T13:34:44;8.00;57.20
74511;DHT22;62991;50.040;18.400;2022-11-23T13:41:01;7.90;57.20
74511;DHT22;62991;50.040;18.400;2022-11-23T13:47:19;7.90;57.20
74511;DHT22;62991;50.040;18.400;2022-11-23T13:50:20;7.90;57.20
74511;DHT22;62991;50.040;18.400;2022-11-23T13:57:00;7.90;57.20
74511;DHT22;62991;50.040;18.400;2022-11-23T14:03:54;7.90;57.30
74511;DHT22;62991;50.040;18.400;2022-11-23T14:10:18;7.90;57.20
74511;DHT22;62991;50.040;18.400;2022-11-23T14:13:24;7.90;57.20
74511;DHT22;62991;50.040;18.400;2022-11-23T14:17:23;7.80;57.20
74511;DHT22;62991;50.040;18.400;2022-11-23T14:26:48;7.80;57.20
74511;DHT22;62991;50.040;18.400;2022-11-23T14:30:04;7.80;57.10
74511;DHT22;62991;50.040;18.400;2022-11-23T14:36:38;7.70;57.20
74511;DHT22;62991;50.040;18.400;2022-11-23T14:43:04;7.70;57.30
74511;DHT22;62991;50.040;18.400;2022-11-23T14:46:12;7.60;57.30
74511;DHT22;62991;50.040;18.400;2022-11-23T14:49:14;7.60;57.30
74511;DHT22;62991;50.040;18.400;2022-11-23T14:52:23;7.60;57.30
74511;DHT22;62991;50.040;18.400;2022-11-23T14:55:27;7.60;57.30
74511;DHT22;62991;50.040;18.400;2022-11-23T14:58:30;7.60;57.40
74511;DHT22;62991;50.040;18.400;2022-11-23T15:01:33;7.60;57.30
74511;DHT22;62991;50.040;18.400;2022-11-23T15:04:38;7.60;57.30
74511;DHT22;62991;50.040;18.400;2022-11-23T15:07:59;7.50;57.30
74511;DHT22;62991;50.040;18.400;2022-11-23T15:11:04;7.60;57.40
74511;DHT22;62991;50.040;18.400;2022-11-23T15:14:20;7.60;57.40
74511;DHT22;62991;50.040;18.400;2022-11-23T15:17:25;7.50;57.30
74511;DHT22;62991;50.040;18.400;2022-11-23T15:20:39;7.50;57.40
74511;DHT22;62991;50.040;18.400;2022-11-23T15:23:48;7.50;57.30
74511;DHT22;62991;50.040;18.400;2022-11-23T15:26:51;7.50;57.40
74511;DHT22;62991;50.040;18.400;2022-11-23T15:33:04;7.50;57.40
74511;DHT22;62991;50.040;18.400;2022-11-23T15:36:08;7.50;57.40
74511;DHT22;62991;50.040;18.400;2022-11-23T15:39:18;7.50;57.40
74511;DHT22;62991;50.040;18.400;2022-11-23T15:42:22;7.50;57.30
74511;DHT22;62991;50.040;18.400;2022-11-23T15:48:40;7.50;57.30
74511;DHT22;62991;50.040;18.400;2022-11-23T15:51:43;7.50;57.40
74511;DHT22;62991;50.040;18.400;2022-11-23T15:54:44;7.50;57.40
74511;DHT22;62991;50.040;18.400;2022-11-23T15:57:46;7.40;57.40
74511;DHT22;62991;50.040;18.400;2022-11-23T16:00:54;7.40;57.40
74511;DHT22;62991;50.040;18.400;2022-11-23T16:03:57;7.50;57.40
74511;DHT22;62991;50.040;18.400;2022-11-23T16:07:20;7.50;57.30
74511;DHT22;62991;50.040;18.400;2022-11-23T16:10:27;7.50;57.30
74511;DHT22;62991;50.040;18.400;2022-11-23T16:13:37;7.40;57.30
74511;DHT22;62991;50.040;18.400;2022-11-23T16:16:39;7.40;57.40
74511;DHT22;62991;50.040;18.400;2022-11-23T16:19:51;7.40;57.30
74511;DHT22;62991;50.040;18.400;2022-11-23T16:22:53;7.40;57.40
74511;DHT22;62991;50.040;18.400;2022-11-23T16:25:56;7.40;57.30
74511;DHT22;62991;50.040;18.400;2022-11-23T16:28:59;7.40;57.40
74511;DHT22;62991;50.040;18.400;2022-11-23T16:32:01;7.40;57.30
74511;DHT22;62991;50.040;18.400;2022-11-23T16:35:19;7.40;57.40
74511;DHT22;62991;50.040;18.400;2022-11-23T16:38:20;7.40;57.30
74511;DHT22;62991;50.040;18.400;2022-11-23T16:41:22;7.40;57.30
74511;DHT22;62991;50.040;18.400;2022-11-23T16:44:23;7.30;57.40
74511;DHT22;62991;50.040;18.400;2022-11-23T16:47:25;7.30;57.40
74511;DHT22;62991;50.040;18.400;2022-11-23T16:50:29;7.30;57.40
74511;DHT22;62991;50.040;18.400;2022-11-23T16:53:30;7.30;57.40
74511;DHT22;62991;50.040;18.400;2022-11-23T16:56:33;7.30;57.50
74511;DHT22;62991;50.040;18.400;2022-11-23T16:59:34;7.30;57.50
74511;DHT22;62991;50.040;18.400;2022-11-23T17:02:35;7.30;57.40
74511;DHT22;62991;50.040;18.400;2022-11-23T17:05:37;7.30;57.40
74511;DHT22;62991;50.040;18.400;2022-11-23T17:08:38;7.30;57.40
74511;DHT22;62991;50.040;18.400;2022-11-23T17:11:41;7.30;57.40
74511;DHT22;62991;50.040;18.400;2022-11-23T17:14:47;7.30;57.40
74511;DHT22;62991;50.040;18.400;2022-11-23T17:17:49;7.20;57.40
74511;DHT22;62991;50.040;18.400;2022-11-23T17:20:50;7.20;57.40
74511;DHT22;62991;50.040;18.400;2022-11-23T17:23:52;7.20;57.50
74511;DHT22;62991;50.040;18.400;2022-11-23T17:26:53;7.20;57.60
74511;DHT22;62991;50.040;18.400;2022-11-23T17:29:59;7.20;57.60
74511;DHT22;62991;50.040;18.400;2022-11-23T17:33:01;7.20;57.50
74511;DHT22;62991;50.040;18.400;2022-11-23T17:36:02;7.20;57.50
74511;DHT22;62991;50.040;18.400;2022-11-23T17:39:03;7.20;57.60
74511;DHT22;62991;50.040;18.400;2022-11-23T17:42:05;7.20;57.60
74511;DHT22;62991;50.040;18.400;2022-11-23T17:45:06;7.20;57.60
74511;DHT22;62991;50.040;18.400;2022-11-23T17:48:10;7.20;57.60
74511;DHT22;62991;50.040;18.400;2022-11-23T17:51:12;7.10;57.60
74511;DHT22;62991;50.040;18.400;2022-11-23T17:54:13;7.10;57.60
74511;DHT22;62991;50.040;18.400;2022-11-23T17:57:25;7.20;57.60
74511;DHT22;62991;50.040;18.400;2022-11-23T18:00:27;7.10;57.70
74511;DHT22;62991;50.040;18.400;2022-11-23T18:03:29;7.10;57.60
74511;DHT22;62991;50.040;18.400;2022-11-23T18:06:30;7.10;57.70
74511;DHT22;62991;50.040;18.400;2022-11-23T18:09:31;7.10;57.70
74511;DHT22;62991;50.040;18.400;2022-11-23T18:12:32;7.10;57.70
74511;DHT22;62991;50.040;18.400;2022-11-23T18:15:33;7.10;57.70
74511;DHT22;62991;50.040;18.400;2022-11-23T18:18:35;7.10;57.70
74511;DHT22;62991;50.040;18.400;2022-11-23T18:21:37;7.10;57.70
74511;DHT22;62991;50.040;18.400;2022-11-23T18:24:38;7.10;57.70
74511;DHT22;62991;50.040;18.400;2022-11-23T18:27:39;7.10;57.70
74511;DHT22;62991;50.040;18.400;2022-11-23T18:30:40;7.10;57.70
74511;DHT22;62991;50.040;18.400;2022-11-23T18:33:41;7.10;57.60
74511;DHT22;62991;50.040;18.400;2022-11-23T18:36:43;7.10;57.60
74511;DHT22;62991;50.040;18.400;2022-11-23T18:39:44;7.10;57.70
74511;DHT22;62991;50.040;18.400;2022-11-23T18:42:45;7.10;57.60
74511;DHT22;62991;50.040;18.400;2022-11-23T18:45:46;7.10;57.60
74511;DHT22;62991;50.040;18.400;2022-11-23T18:48:48;7.10;57.60
74511;DHT22;62991;50.040;18.400;2022-11-23T18:51:50;7.10;57.60
74511;DHT22;62991;50.040;18.400;2022-11-23T18:54:51;7.10;57.60
74511;DHT22;62991;50.040;18.400;2022-11-23T18:57:53;7.10;57.70
74511;DHT22;62991;50.040;18.400;2022-11-23T19:00:54;7.10;57.70
74511;DHT22;62991;50.040;18.400;2022-11-23T19:03:55;7.10;57.70
74511;DHT22;62991;50.040;18.400;2022-11-23T19:06:56;7.10;57.60
74511;DHT22;62991;50.040;18.400;2022-11-23T19:09:57;7.10;57.70
74511;DHT22;62991;50.040;18.400;2022-11-23T19:12:59;7.10;57.70
74511;DHT22;62991;50.040;18.400;2022-11-23T19:16:08;7.10;57.60
74511;DHT22;62991;50.040;18.400;2022-11-23T19:19:10;7.10;57.60
74511;DHT22;62991;50.040;18.400;2022-11-23T19:22:12;7.10;57.70
74511;DHT22;62991;50.040;18.400;2022-11-23T19:25:13;7.10;57.60
74511;DHT22;62991;50.040;18.400;2022-11-23T19:28:14;7.10;57.60
74511;DHT22;62991;50.040;18.400;2022-11-23T19:31:16;7.10;57.70
74511;DHT22;62991;50.040;18.400;2022-11-23T19:34:18;7.10;57.70
74511;DHT22;62991;50.040;18.400;2022-11-23T19:37:19;7.10;57.70
74511;DHT22;62991;50.040;18.400;2022-11-23T19:40:20;7.10;57.70
74511;DHT22;62991;50.040;18.400;2022-11-23T19:43:21;7.10;57.70
74511;DHT22;62991;50.040;18.400;2022-11-23T19:46:23;7.00;57.70
74511;DHT22;62991;50.040;18.400;2022-11-23T19:49:24;7.00;57.70
74511;DHT22;62991;50.040;18.400;2022-11-23T19:52:27;7.00;57.70
74511;DHT22;62991;50.040;18.400;2022-11-23T19:55:29;7.00;57.70
74511;DHT22;62991;50.040;18.400;2022-11-23T19:58:31;7.00;57.70
74511;DHT22;62991;50.040;18.400;2022-11-23T20:01:32;7.00;57.70
74511;DHT22;62991;50.040;18.400;2022-11-23T20:04:33;7.00;57.80
74511;DHT22;62991;50.040;18.400;2022-11-23T20:07:35;6.90;57.80
74511;DHT22;62991;50.040;18.400;2022-11-23T20:10:36;6.90;57.80
74511;DHT22;62991;50.040;18.400;2022-11-23T20:13:37;6.90;57.90
74511;DHT22;62991;50.040;18.400;2022-11-23T20:16:38;6.90;57.90
74511;DHT22;62991;50.040;18.400;2022-11-23T20:19:40;6.90;58.00
74511;DHT22;62991;50.040;18.400;2022-11-23T20:22:41;6.90;57.90
74511;DHT22;62991;50.040;18.400;2022-11-23T20:25:44;6.80;58.00
74511;DHT22;62991;50.040;18.400;2022-11-23T20:28:49;6.80;57.90
74511;DHT22;62991;50.040;18.400;2022-11-23T20:31:51;6.80;58.00
74511;DHT22;62991;50.040;18.400;2022-11-23T20:34:52;6.80;57.90
74511;DHT22;62991;50.040;18.400;2022-11-23T20:37:53;6.80;58.00
74511;DHT22;62991;50.040;18.400;2022-11-23T20:40:54;6.80;58.00
74511;DHT22;62991;50.040;18.400;2022-11-23T20:44:04;6.70;58.00
74511;DHT22;62991;50.040;18.400;2022-11-23T20:47:06;6.70;58.10
74511;DHT22;62991;50.040;18.400;2022-11-23T20:50:07;6.70;58.00
74511;DHT22;62991;50.040;18.400;2022-11-23T20:53:08;6.70;58.10
74511;DHT22;62991;50.040;18.400;2022-11-23T20:56:10;6.70;58.00
74511;DHT22;62991;50.040;18.400;2022-11-23T20:59:12;6.70;58.00